<?xml version="1.0" encoding="UTF-8" ?>
<gpx version="1.1" xmlns:xsi="http://www.w3.org/2001/XMLSchema-instance" 
    xmlns="http://www.topografix.com/GPX/1/1" 
    xsi:schemaLocation="http://www.topografix.com/GPX/1/1 http://www.topografix.com/GPX/1/1/gpx.xsd" 
    creator="Openrunner - https://www.openrunner.com" >	<trk>
						<name>7-Lac_de_Roue_à_Souliers</name>
						<trkseg>
					<trkpt lat="44.763430" lon="6.766780">
						<ele>1852</ele>
						<time>2022-01-16T16:04:54Z</time>
					</trkpt>
					<trkpt lat="44.763210" lon="6.766830">
						<ele>1851</ele>
						<time>2022-01-16T16:05:24Z</time>
					</trkpt>
					<trkpt lat="44.762980" lon="6.766790">
						<ele>1850</ele>
						<time>2022-01-16T16:05:55Z</time>
					</trkpt>
					<trkpt lat="44.762780" lon="6.766630">
						<ele>1850</ele>
						<time>2022-01-16T16:06:25Z</time>
					</trkpt>
					<trkpt lat="44.762570" lon="6.766460">
						<ele>1851</ele>
						<time>2022-01-16T16:06:58Z</time>
					</trkpt>
					<trkpt lat="44.762360" lon="6.766340">
						<ele>1852</ele>
						<time>2022-01-16T16:07:28Z</time>
					</trkpt>
					<trkpt lat="44.762160" lon="6.766210">
						<ele>1852</ele>
						<time>2022-01-16T16:07:57Z</time>
					</trkpt>
					<trkpt lat="44.761930" lon="6.766090">
						<ele>1852</ele>
						<time>2022-01-16T16:08:30Z</time>
					</trkpt>
					<trkpt lat="44.761720" lon="6.765980">
						<ele>1851</ele>
						<time>2022-01-16T16:09:00Z</time>
					</trkpt>
					<trkpt lat="44.761500" lon="6.765890">
						<ele>1853</ele>
						<time>2022-01-16T16:09:31Z</time>
					</trkpt>
					<trkpt lat="44.761270" lon="6.765820">
						<ele>1854</ele>
						<time>2022-01-16T16:10:02Z</time>
					</trkpt>
					<trkpt lat="44.761070" lon="6.765670">
						<ele>1854</ele>
						<time>2022-01-16T16:10:32Z</time>
					</trkpt>
					<trkpt lat="44.760970" lon="6.765380">
						<ele>1854</ele>
						<time>2022-01-16T16:11:03Z</time>
					</trkpt>
					<trkpt lat="44.761100" lon="6.765120">
						<ele>1855</ele>
						<time>2022-01-16T16:11:33Z</time>
					</trkpt>
					<trkpt lat="44.761270" lon="6.764900">
						<ele>1856</ele>
						<time>2022-01-16T16:12:04Z</time>
					</trkpt>
					<trkpt lat="44.761500" lon="6.764880">
						<ele>1859</ele>
						<time>2022-01-16T16:12:34Z</time>
					</trkpt>
					<trkpt lat="44.761730" lon="6.764850">
						<ele>1863</ele>
						<time>2022-01-16T16:13:05Z</time>
					</trkpt>
					<trkpt lat="44.761950" lon="6.764830">
						<ele>1866</ele>
						<time>2022-01-16T16:13:35Z</time>
					</trkpt>
					<trkpt lat="44.762130" lon="6.764630">
						<ele>1871</ele>
						<time>2022-01-16T16:14:05Z</time>
					</trkpt>
					<trkpt lat="44.762120" lon="6.764300">
						<ele>1873</ele>
						<time>2022-01-16T16:14:37Z</time>
					</trkpt>
					<trkpt lat="44.762080" lon="6.763990">
						<ele>1873</ele>
						<time>2022-01-16T16:15:06Z</time>
					</trkpt>
					<trkpt lat="44.762080" lon="6.763120">
						<ele>1868</ele>
						<time>2022-01-16T16:16:29Z</time>
					</trkpt>
					<trkpt lat="44.762410" lon="6.763910">
						<ele>1880</ele>
						<time>2022-01-16T16:17:56Z</time>
					</trkpt>
					<trkpt lat="44.762550" lon="6.764170">
						<ele>1883</ele>
						<time>2022-01-16T16:18:27Z</time>
					</trkpt>
					<trkpt lat="44.762720" lon="6.764380">
						<ele>1884</ele>
						<time>2022-01-16T16:18:57Z</time>
					</trkpt>
					<trkpt lat="44.762920" lon="6.764550">
						<ele>1885</ele>
						<time>2022-01-16T16:19:28Z</time>
					</trkpt>
					<trkpt lat="44.763130" lon="6.764680">
						<ele>1887</ele>
						<time>2022-01-16T16:19:59Z</time>
					</trkpt>
					<trkpt lat="44.763350" lon="6.764780">
						<ele>1889</ele>
						<time>2022-01-16T16:20:29Z</time>
					</trkpt>
					<trkpt lat="44.763570" lon="6.764860">
						<ele>1891</ele>
						<time>2022-01-16T16:21:00Z</time>
					</trkpt>
					<trkpt lat="44.763770" lon="6.765020">
						<ele>1891</ele>
						<time>2022-01-16T16:21:30Z</time>
					</trkpt>
					<trkpt lat="44.763950" lon="6.765210">
						<ele>1889</ele>
						<time>2022-01-16T16:22:00Z</time>
					</trkpt>
					<trkpt lat="44.764170" lon="6.765290">
						<ele>1890</ele>
						<time>2022-01-16T16:22:31Z</time>
					</trkpt>
					<trkpt lat="44.764400" lon="6.765380">
						<ele>1891</ele>
						<time>2022-01-16T16:23:03Z</time>
					</trkpt>
					<trkpt lat="44.764580" lon="6.765580">
						<ele>1888</ele>
						<time>2022-01-16T16:23:33Z</time>
					</trkpt>
					<trkpt lat="44.764760" lon="6.765760">
						<ele>1885</ele>
						<time>2022-01-16T16:24:03Z</time>
					</trkpt>
					<trkpt lat="44.764990" lon="6.765880">
						<ele>1884</ele>
						<time>2022-01-16T16:24:35Z</time>
					</trkpt>
					<trkpt lat="44.765210" lon="6.765950">
						<ele>1881</ele>
						<time>2022-01-16T16:25:05Z</time>
					</trkpt>
					<trkpt lat="44.765440" lon="6.765910">
						<ele>1882</ele>
						<time>2022-01-16T16:25:36Z</time>
					</trkpt>
					<trkpt lat="44.765650" lon="6.765800">
						<ele>1886</ele>
						<time>2022-01-16T16:26:06Z</time>
					</trkpt>
					<trkpt lat="44.765880" lon="6.765720">
						<ele>1890</ele>
						<time>2022-01-16T16:26:38Z</time>
					</trkpt>
					<trkpt lat="44.766090" lon="6.765810">
						<ele>1884</ele>
						<time>2022-01-16T16:27:07Z</time>
					</trkpt>
					<trkpt lat="44.766310" lon="6.765910">
						<ele>1879</ele>
						<time>2022-01-16T16:27:38Z</time>
					</trkpt>
					<trkpt lat="44.766510" lon="6.765770">
						<ele>1884</ele>
						<time>2022-01-16T16:28:08Z</time>
					</trkpt>
					<trkpt lat="44.766980" lon="6.765720">
						<ele>1883</ele>
						<time>2022-01-16T16:29:11Z</time>
					</trkpt>
					<trkpt lat="44.767200" lon="6.765640">
						<ele>1885</ele>
						<time>2022-01-16T16:29:41Z</time>
					</trkpt>
					<trkpt lat="44.767410" lon="6.765460">
						<ele>1889</ele>
						<time>2022-01-16T16:30:14Z</time>
					</trkpt>
					<trkpt lat="44.767630" lon="6.765340">
						<ele>1888</ele>
						<time>2022-01-16T16:30:45Z</time>
					</trkpt>
					<trkpt lat="44.767880" lon="6.764800">
						<ele>1897</ele>
						<time>2022-01-16T16:31:46Z</time>
					</trkpt>
					<trkpt lat="44.768010" lon="6.764530">
						<ele>1902</ele>
						<time>2022-01-16T16:32:17Z</time>
					</trkpt>
					<trkpt lat="44.768230" lon="6.764440">
						<ele>1898</ele>
						<time>2022-01-16T16:32:48Z</time>
					</trkpt>
					<trkpt lat="44.768460" lon="6.764550">
						<ele>1890</ele>
						<time>2022-01-16T16:33:20Z</time>
					</trkpt>
					<trkpt lat="44.768680" lon="6.764590">
						<ele>1887</ele>
						<time>2022-01-16T16:33:50Z</time>
					</trkpt>
					<trkpt lat="44.768900" lon="6.764680">
						<ele>1882</ele>
						<time>2022-01-16T16:34:21Z</time>
					</trkpt>
					<trkpt lat="44.769120" lon="6.764560">
						<ele>1885</ele>
						<time>2022-01-16T16:34:52Z</time>
					</trkpt>
					<trkpt lat="44.769320" lon="6.764410">
						<ele>1885</ele>
						<time>2022-01-16T16:35:22Z</time>
					</trkpt>
					<trkpt lat="44.769530" lon="6.764250">
						<ele>1885</ele>
						<time>2022-01-16T16:35:54Z</time>
					</trkpt>
					<trkpt lat="44.769610" lon="6.763950">
						<ele>1893</ele>
						<time>2022-01-16T16:36:24Z</time>
					</trkpt>
					<trkpt lat="44.769760" lon="6.763720">
						<ele>1896</ele>
						<time>2022-01-16T16:36:54Z</time>
					</trkpt>
					<trkpt lat="44.769910" lon="6.763460">
						<ele>1900</ele>
						<time>2022-01-16T16:37:26Z</time>
					</trkpt>
					<trkpt lat="44.770100" lon="6.763280">
						<ele>1901</ele>
						<time>2022-01-16T16:37:56Z</time>
					</trkpt>
					<trkpt lat="44.770330" lon="6.763270">
						<ele>1897</ele>
						<time>2022-01-16T16:38:27Z</time>
					</trkpt>
					<trkpt lat="44.770560" lon="6.763250">
						<ele>1893</ele>
						<time>2022-01-16T16:38:58Z</time>
					</trkpt>
					<trkpt lat="44.770830" lon="6.763220">
						<ele>1889</ele>
						<time>2022-01-16T16:39:34Z</time>
					</trkpt>
					<trkpt lat="44.771040" lon="6.763350">
						<ele>1881</ele>
						<time>2022-01-16T16:40:05Z</time>
					</trkpt>
					<trkpt lat="44.771260" lon="6.763290">
						<ele>1882</ele>
						<time>2022-01-16T16:40:34Z</time>
					</trkpt>
					<trkpt lat="44.771570" lon="6.763220">
						<ele>1881</ele>
						<time>2022-01-16T16:41:16Z</time>
					</trkpt>
					<trkpt lat="44.771650" lon="6.763000">
						<ele>1889</ele>
						<time>2022-01-16T16:41:40Z</time>
					</trkpt>
					<trkpt lat="44.771760" lon="6.762730">
						<ele>1898</ele>
						<time>2022-01-16T16:42:09Z</time>
					</trkpt>
					<trkpt lat="44.771900" lon="6.762480">
						<ele>1906</ele>
						<time>2022-01-16T16:42:39Z</time>
					</trkpt>
					<trkpt lat="44.772100" lon="6.762320">
						<ele>1910</ele>
						<time>2022-01-16T16:43:10Z</time>
					</trkpt>
					<trkpt lat="44.772320" lon="6.762250">
						<ele>1910</ele>
						<time>2022-01-16T16:43:40Z</time>
					</trkpt>
					<trkpt lat="44.772580" lon="6.762360">
						<ele>1904</ele>
						<time>2022-01-16T16:44:16Z</time>
					</trkpt>
					<trkpt lat="44.772730" lon="6.762580">
						<ele>1896</ele>
						<time>2022-01-16T16:44:45Z</time>
					</trkpt>
					<trkpt lat="44.772910" lon="6.762780">
						<ele>1890</ele>
						<time>2022-01-16T16:45:16Z</time>
					</trkpt>
					<trkpt lat="44.773060" lon="6.763020">
						<ele>1882</ele>
						<time>2022-01-16T16:45:46Z</time>
					</trkpt>
					<trkpt lat="44.773250" lon="6.763200">
						<ele>1877</ele>
						<time>2022-01-16T16:46:17Z</time>
					</trkpt>
					<trkpt lat="44.773470" lon="6.763080">
						<ele>1881</ele>
						<time>2022-01-16T16:46:48Z</time>
					</trkpt>
					<trkpt lat="44.773660" lon="6.762900">
						<ele>1886</ele>
						<time>2022-01-16T16:47:19Z</time>
					</trkpt>
					<trkpt lat="44.773790" lon="6.762630">
						<ele>1894</ele>
						<time>2022-01-16T16:47:50Z</time>
					</trkpt>
					<trkpt lat="44.773950" lon="6.762390">
						<ele>1901</ele>
						<time>2022-01-16T16:48:21Z</time>
					</trkpt>
					<trkpt lat="44.774150" lon="6.762320">
						<ele>1900</ele>
						<time>2022-01-16T16:48:48Z</time>
					</trkpt>
					<trkpt lat="44.774300" lon="6.762150">
						<ele>1907</ele>
						<time>2022-01-16T16:49:14Z</time>
					</trkpt>
					<trkpt lat="44.774540" lon="6.762350">
						<ele>1899</ele>
						<time>2022-01-16T16:49:51Z</time>
					</trkpt>
					<trkpt lat="44.774790" lon="6.762370">
						<ele>1899</ele>
						<time>2022-01-16T16:50:25Z</time>
					</trkpt>
					<trkpt lat="44.774960" lon="6.762490">
						<ele>1894</ele>
						<time>2022-01-16T16:50:50Z</time>
					</trkpt>
					<trkpt lat="44.775110" lon="6.762840">
						<ele>1889</ele>
						<time>2022-01-16T16:51:29Z</time>
					</trkpt>
					<trkpt lat="44.775540" lon="6.763040">
						<ele>1896</ele>
						<time>2022-01-16T16:52:29Z</time>
					</trkpt>
					<trkpt lat="44.775660" lon="6.763330">
						<ele>1894</ele>
						<time>2022-01-16T16:53:01Z</time>
					</trkpt>
					<trkpt lat="44.775860" lon="6.763480">
						<ele>1892</ele>
						<time>2022-01-16T16:53:31Z</time>
					</trkpt>
					<trkpt lat="44.776100" lon="6.763470">
						<ele>1900</ele>
						<time>2022-01-16T16:54:03Z</time>
					</trkpt>
					<trkpt lat="44.776330" lon="6.763580">
						<ele>1902</ele>
						<time>2022-01-16T16:54:36Z</time>
					</trkpt>
					<trkpt lat="44.776550" lon="6.763700">
						<ele>1902</ele>
						<time>2022-01-16T16:55:07Z</time>
					</trkpt>
					<trkpt lat="44.776670" lon="6.763960">
						<ele>1891</ele>
						<time>2022-01-16T16:55:37Z</time>
					</trkpt>
					<trkpt lat="44.776880" lon="6.764110">
						<ele>1887</ele>
						<time>2022-01-16T16:56:08Z</time>
					</trkpt>
					<trkpt lat="44.777110" lon="6.764120">
						<ele>1890</ele>
						<time>2022-01-16T16:56:39Z</time>
					</trkpt>
					<trkpt lat="44.777340" lon="6.764080">
						<ele>1897</ele>
						<time>2022-01-16T16:57:10Z</time>
					</trkpt>
					<trkpt lat="44.777570" lon="6.764070">
						<ele>1900</ele>
						<time>2022-01-16T16:57:40Z</time>
					</trkpt>
					<trkpt lat="44.777800" lon="6.764080">
						<ele>1898</ele>
						<time>2022-01-16T16:58:11Z</time>
					</trkpt>
					<trkpt lat="44.778030" lon="6.764060">
						<ele>1898</ele>
						<time>2022-01-16T16:58:42Z</time>
					</trkpt>
					<trkpt lat="44.778260" lon="6.763980">
						<ele>1901</ele>
						<time>2022-01-16T16:59:13Z</time>
					</trkpt>
					<trkpt lat="44.778480" lon="6.763970">
						<ele>1899</ele>
						<time>2022-01-16T16:59:43Z</time>
					</trkpt>
					<trkpt lat="44.778710" lon="6.763910">
						<ele>1898</ele>
						<time>2022-01-16T17:00:14Z</time>
					</trkpt>
					<trkpt lat="44.778950" lon="6.763860">
						<ele>1895</ele>
						<time>2022-01-16T17:00:46Z</time>
					</trkpt>
					<trkpt lat="44.779160" lon="6.763770">
						<ele>1895</ele>
						<time>2022-01-16T17:01:16Z</time>
					</trkpt>
					<trkpt lat="44.779330" lon="6.763690">
						<ele>1896</ele>
						<time>2022-01-16T17:01:40Z</time>
					</trkpt>
					<trkpt lat="44.779410" lon="6.763270">
						<ele>1911</ele>
						<time>2022-01-16T17:02:21Z</time>
					</trkpt>
					<trkpt lat="44.779490" lon="6.762950">
						<ele>1922</ele>
						<time>2022-01-16T17:02:53Z</time>
					</trkpt>
					<trkpt lat="44.779700" lon="6.763060">
						<ele>1912</ele>
						<time>2022-01-16T17:03:23Z</time>
					</trkpt>
					<trkpt lat="44.779920" lon="6.763030">
						<ele>1907</ele>
						<time>2022-01-16T17:03:52Z</time>
					</trkpt>
					<trkpt lat="44.780090" lon="6.763090">
						<ele>1904</ele>
						<time>2022-01-16T17:04:16Z</time>
					</trkpt>
					<trkpt lat="44.780330" lon="6.762960">
						<ele>1911</ele>
						<time>2022-01-16T17:04:50Z</time>
					</trkpt>
					<trkpt lat="44.780390" lon="6.763310">
						<ele>1900</ele>
						<time>2022-01-16T17:05:24Z</time>
					</trkpt>
					<trkpt lat="44.780580" lon="6.763410">
						<ele>1900</ele>
						<time>2022-01-16T17:05:51Z</time>
					</trkpt>
					<trkpt lat="44.780950" lon="6.763240">
						<ele>1909</ele>
						<time>2022-01-16T17:06:43Z</time>
					</trkpt>
					<trkpt lat="44.781180" lon="6.763260">
						<ele>1910</ele>
						<time>2022-01-16T17:07:14Z</time>
					</trkpt>
					<trkpt lat="44.781400" lon="6.763360">
						<ele>1908</ele>
						<time>2022-01-16T17:07:45Z</time>
					</trkpt>
					<trkpt lat="44.781640" lon="6.763370">
						<ele>1910</ele>
						<time>2022-01-16T17:08:17Z</time>
					</trkpt>
					<trkpt lat="44.781720" lon="6.763440">
						<ele>1909</ele>
						<time>2022-01-16T17:08:29Z</time>
					</trkpt>
					<trkpt lat="44.781780" lon="6.763640">
						<ele>1905</ele>
						<time>2022-01-16T17:08:50Z</time>
					</trkpt>
					<trkpt lat="44.781870" lon="6.763740">
						<ele>1903</ele>
						<time>2022-01-16T17:09:05Z</time>
					</trkpt>
					<trkpt lat="44.781990" lon="6.763780">
						<ele>1905</ele>
						<time>2022-01-16T17:09:22Z</time>
					</trkpt>
					<trkpt lat="44.782440" lon="6.763910">
						<ele>1908</ele>
						<time>2022-01-16T17:10:23Z</time>
					</trkpt>
					<trkpt lat="44.782670" lon="6.763900">
						<ele>1912</ele>
						<time>2022-01-16T17:10:54Z</time>
					</trkpt>
					<trkpt lat="44.782890" lon="6.763950">
						<ele>1913</ele>
						<time>2022-01-16T17:11:23Z</time>
					</trkpt>
					<trkpt lat="44.783070" lon="6.763940">
						<ele>1916</ele>
						<time>2022-01-16T17:11:47Z</time>
					</trkpt>
					<trkpt lat="44.783350" lon="6.764060">
						<ele>1915</ele>
						<time>2022-01-16T17:12:27Z</time>
					</trkpt>
					<trkpt lat="44.783560" lon="6.764170">
						<ele>1916</ele>
						<time>2022-01-16T17:12:56Z</time>
					</trkpt>
					<trkpt lat="44.783760" lon="6.764250">
						<ele>1919</ele>
						<time>2022-01-16T17:13:24Z</time>
					</trkpt>
					<trkpt lat="44.783950" lon="6.764470">
						<ele>1918</ele>
						<time>2022-01-16T17:13:57Z</time>
					</trkpt>
					<trkpt lat="44.784230" lon="6.764620">
						<ele>1919</ele>
						<time>2022-01-16T17:14:37Z</time>
					</trkpt>
					<trkpt lat="44.784410" lon="6.764680">
						<ele>1920</ele>
						<time>2022-01-16T17:15:02Z</time>
					</trkpt>
					<trkpt lat="44.784630" lon="6.764760">
						<ele>1919</ele>
						<time>2022-01-16T17:15:32Z</time>
					</trkpt>
					<trkpt lat="44.784860" lon="6.764750">
						<ele>1922</ele>
						<time>2022-01-16T17:16:03Z</time>
					</trkpt>
					<trkpt lat="44.784950" lon="6.764820">
						<ele>1920</ele>
						<time>2022-01-16T17:16:16Z</time>
					</trkpt>
					<trkpt lat="44.784950" lon="6.764990">
						<ele>1914</ele>
						<time>2022-01-16T17:16:32Z</time>
					</trkpt>
					<trkpt lat="44.784790" lon="6.765100">
						<ele>1914</ele>
						<time>2022-01-16T17:16:56Z</time>
					</trkpt>
					<trkpt lat="44.784550" lon="6.765300">
						<ele>1915</ele>
						<time>2022-01-16T17:17:33Z</time>
					</trkpt>
					<trkpt lat="44.784360" lon="6.765310">
						<ele>1914</ele>
						<time>2022-01-16T17:17:59Z</time>
					</trkpt>
					<trkpt lat="44.784100" lon="6.765290">
						<ele>1912</ele>
						<time>2022-01-16T17:18:34Z</time>
					</trkpt>
					<trkpt lat="44.783880" lon="6.765200">
						<ele>1907</ele>
						<time>2022-01-16T17:19:04Z</time>
					</trkpt>
					<trkpt lat="44.783650" lon="6.765230">
						<ele>1904</ele>
						<time>2022-01-16T17:19:35Z</time>
					</trkpt>
					<trkpt lat="44.783420" lon="6.765240">
						<ele>1901</ele>
						<time>2022-01-16T17:20:06Z</time>
					</trkpt>
					<trkpt lat="44.783220" lon="6.765060">
						<ele>1896</ele>
						<time>2022-01-16T17:20:37Z</time>
					</trkpt>
					<trkpt lat="44.783030" lon="6.764870">
						<ele>1895</ele>
						<time>2022-01-16T17:21:08Z</time>
					</trkpt>
					<trkpt lat="44.782810" lon="6.764800">
						<ele>1893</ele>
						<time>2022-01-16T17:21:39Z</time>
					</trkpt>
					<trkpt lat="44.782580" lon="6.764780">
						<ele>1890</ele>
						<time>2022-01-16T17:22:09Z</time>
					</trkpt>
					<trkpt lat="44.782340" lon="6.764760">
						<ele>1887</ele>
						<time>2022-01-16T17:22:41Z</time>
					</trkpt>
					<trkpt lat="44.782110" lon="6.764810">
						<ele>1883</ele>
						<time>2022-01-16T17:23:12Z</time>
					</trkpt>
					<trkpt lat="44.781870" lon="6.764820">
						<ele>1880</ele>
						<time>2022-01-16T17:23:44Z</time>
					</trkpt>
					<trkpt lat="44.781660" lon="6.764970">
						<ele>1874</ele>
						<time>2022-01-16T17:24:16Z</time>
					</trkpt>
					<trkpt lat="44.781450" lon="6.765100">
						<ele>1872</ele>
						<time>2022-01-16T17:24:47Z</time>
					</trkpt>
					<trkpt lat="44.781270" lon="6.765300">
						<ele>1872</ele>
						<time>2022-01-16T17:25:17Z</time>
					</trkpt>
					<trkpt lat="44.781060" lon="6.765410">
						<ele>1870</ele>
						<time>2022-01-16T17:25:47Z</time>
					</trkpt>
					<trkpt lat="44.780840" lon="6.765540">
						<ele>1867</ele>
						<time>2022-01-16T17:26:19Z</time>
					</trkpt>
					<trkpt lat="44.780620" lon="6.765610">
						<ele>1865</ele>
						<time>2022-01-16T17:26:49Z</time>
					</trkpt>
					<trkpt lat="44.780390" lon="6.765690">
						<ele>1862</ele>
						<time>2022-01-16T17:27:21Z</time>
					</trkpt>
					<trkpt lat="44.780180" lon="6.765850">
						<ele>1860</ele>
						<time>2022-01-16T17:27:52Z</time>
					</trkpt>
					<trkpt lat="44.780000" lon="6.766040">
						<ele>1861</ele>
						<time>2022-01-16T17:28:22Z</time>
					</trkpt>
					<trkpt lat="44.779790" lon="6.766170">
						<ele>1860</ele>
						<time>2022-01-16T17:28:53Z</time>
					</trkpt>
					<trkpt lat="44.779560" lon="6.766230">
						<ele>1857</ele>
						<time>2022-01-16T17:29:24Z</time>
					</trkpt>
					<trkpt lat="44.779340" lon="6.766240">
						<ele>1853</ele>
						<time>2022-01-16T17:29:54Z</time>
					</trkpt>
					<trkpt lat="44.779110" lon="6.766290">
						<ele>1850</ele>
						<time>2022-01-16T17:30:25Z</time>
					</trkpt>
					<trkpt lat="44.778870" lon="6.766290">
						<ele>1846</ele>
						<time>2022-01-16T17:30:57Z</time>
					</trkpt>
					<trkpt lat="44.778640" lon="6.766340">
						<ele>1844</ele>
						<time>2022-01-16T17:31:28Z</time>
					</trkpt>
					<trkpt lat="44.778410" lon="6.766370">
						<ele>1841</ele>
						<time>2022-01-16T17:31:59Z</time>
					</trkpt>
					<trkpt lat="44.778180" lon="6.766400">
						<ele>1838</ele>
						<time>2022-01-16T17:32:29Z</time>
					</trkpt>
					<trkpt lat="44.777990" lon="6.766600">
						<ele>1838</ele>
						<time>2022-01-16T17:33:01Z</time>
					</trkpt>
					<trkpt lat="44.777760" lon="6.766690">
						<ele>1836</ele>
						<time>2022-01-16T17:33:33Z</time>
					</trkpt>
					<trkpt lat="44.777540" lon="6.766800">
						<ele>1835</ele>
						<time>2022-01-16T17:34:04Z</time>
					</trkpt>
					<trkpt lat="44.777320" lon="6.766900">
						<ele>1834</ele>
						<time>2022-01-16T17:34:35Z</time>
					</trkpt>
					<trkpt lat="44.777120" lon="6.767070">
						<ele>1834</ele>
						<time>2022-01-16T17:35:06Z</time>
					</trkpt>
					<trkpt lat="44.776880" lon="6.767090">
						<ele>1832</ele>
						<time>2022-01-16T17:35:38Z</time>
					</trkpt>
					<trkpt lat="44.776650" lon="6.767150">
						<ele>1830</ele>
						<time>2022-01-16T17:36:09Z</time>
					</trkpt>
					<trkpt lat="44.776450" lon="6.767320">
						<ele>1828</ele>
						<time>2022-01-16T17:36:41Z</time>
					</trkpt>
					<trkpt lat="44.776280" lon="6.767560">
						<ele>1829</ele>
						<time>2022-01-16T17:37:13Z</time>
					</trkpt>
					<trkpt lat="44.776090" lon="6.767730">
						<ele>1827</ele>
						<time>2022-01-16T17:37:43Z</time>
					</trkpt>
					<trkpt lat="44.775910" lon="6.767930">
						<ele>1827</ele>
						<time>2022-01-16T17:38:13Z</time>
					</trkpt>
					<trkpt lat="44.775710" lon="6.768130">
						<ele>1827</ele>
						<time>2022-01-16T17:38:46Z</time>
					</trkpt>
					<trkpt lat="44.775480" lon="6.768240">
						<ele>1825</ele>
						<time>2022-01-16T17:39:18Z</time>
					</trkpt>
					<trkpt lat="44.775310" lon="6.768440">
						<ele>1825</ele>
						<time>2022-01-16T17:39:48Z</time>
					</trkpt>
					<trkpt lat="44.775120" lon="6.768620">
						<ele>1825</ele>
						<time>2022-01-16T17:40:19Z</time>
					</trkpt>
					<trkpt lat="44.775000" lon="6.768920">
						<ele>1830</ele>
						<time>2022-01-16T17:40:51Z</time>
					</trkpt>
					<trkpt lat="44.774870" lon="6.769190">
						<ele>1833</ele>
						<time>2022-01-16T17:41:22Z</time>
					</trkpt>
					<trkpt lat="44.774650" lon="6.769130">
						<ele>1827</ele>
						<time>2022-01-16T17:41:52Z</time>
					</trkpt>
					<trkpt lat="44.774430" lon="6.769030">
						<ele>1819</ele>
						<time>2022-01-16T17:42:23Z</time>
					</trkpt>
					<trkpt lat="44.774240" lon="6.768870">
						<ele>1810</ele>
						<time>2022-01-16T17:42:52Z</time>
					</trkpt>
					<trkpt lat="44.774010" lon="6.768900">
						<ele>1807</ele>
						<time>2022-01-16T17:43:23Z</time>
					</trkpt>
					<trkpt lat="44.773800" lon="6.769020">
						<ele>1806</ele>
						<time>2022-01-16T17:43:53Z</time>
					</trkpt>
					<trkpt lat="44.773950" lon="6.768920">
						<ele>1806</ele>
						<time>2022-01-16T17:44:16Z</time>
					</trkpt>
					<trkpt lat="44.774240" lon="6.768870">
						<ele>1810</ele>
						<time>2022-01-16T17:44:55Z</time>
					</trkpt>
					<trkpt lat="44.774430" lon="6.769060">
						<ele>1820</ele>
						<time>2022-01-16T17:45:26Z</time>
					</trkpt>
					<trkpt lat="44.774640" lon="6.769190">
						<ele>1828</ele>
						<time>2022-01-16T17:45:56Z</time>
					</trkpt>
					<trkpt lat="44.774870" lon="6.769160">
						<ele>1832</ele>
						<time>2022-01-16T17:46:27Z</time>
					</trkpt>
					<trkpt lat="44.774990" lon="6.768900">
						<ele>1829</ele>
						<time>2022-01-16T17:46:56Z</time>
					</trkpt>
					<trkpt lat="44.775120" lon="6.768600">
						<ele>1825</ele>
						<time>2022-01-16T17:47:30Z</time>
					</trkpt>
					<trkpt lat="44.775300" lon="6.768400">
						<ele>1824</ele>
						<time>2022-01-16T17:48:00Z</time>
					</trkpt>
					<trkpt lat="44.775490" lon="6.768220">
						<ele>1824</ele>
						<time>2022-01-16T17:48:31Z</time>
					</trkpt>
					<trkpt lat="44.775740" lon="6.768130">
						<ele>1828</ele>
						<time>2022-01-16T17:49:05Z</time>
					</trkpt>
					<trkpt lat="44.775940" lon="6.767880">
						<ele>1827</ele>
						<time>2022-01-16T17:49:41Z</time>
					</trkpt>
					<trkpt lat="44.776120" lon="6.767680">
						<ele>1827</ele>
						<time>2022-01-16T17:50:12Z</time>
					</trkpt>
					<trkpt lat="44.776150" lon="6.767490">
						<ele>1824</ele>
						<time>2022-01-16T17:50:30Z</time>
					</trkpt>
					<trkpt lat="44.776180" lon="6.767350">
						<ele>1823</ele>
						<time>2022-01-16T17:50:44Z</time>
					</trkpt>
					<trkpt lat="44.776140" lon="6.767190">
						<ele>1819</ele>
						<time>2022-01-16T17:51:00Z</time>
					</trkpt>
					<trkpt lat="44.776070" lon="6.767300">
						<ele>1819</ele>
						<time>2022-01-16T17:51:14Z</time>
					</trkpt>
					<trkpt lat="44.776000" lon="6.767500">
						<ele>1821</ele>
						<time>2022-01-16T17:51:35Z</time>
					</trkpt>
					<trkpt lat="44.775930" lon="6.767580">
						<ele>1821</ele>
						<time>2022-01-16T17:51:47Z</time>
					</trkpt>
					<trkpt lat="44.775860" lon="6.767560">
						<ele>1819</ele>
						<time>2022-01-16T17:51:57Z</time>
					</trkpt>
					<trkpt lat="44.775930" lon="6.767400">
						<ele>1818</ele>
						<time>2022-01-16T17:52:14Z</time>
					</trkpt>
					<trkpt lat="44.775940" lon="6.767170">
						<ele>1815</ele>
						<time>2022-01-16T17:52:36Z</time>
					</trkpt>
					<trkpt lat="44.775940" lon="6.766820">
						<ele>1809</ele>
						<time>2022-01-16T17:53:09Z</time>
					</trkpt>
					<trkpt lat="44.776020" lon="6.766560">
						<ele>1807</ele>
						<time>2022-01-16T17:53:36Z</time>
					</trkpt>
					<trkpt lat="44.776130" lon="6.766280">
						<ele>1807</ele>
						<time>2022-01-16T17:54:07Z</time>
					</trkpt>
					<trkpt lat="44.776360" lon="6.766300">
						<ele>1810</ele>
						<time>2022-01-16T17:54:37Z</time>
					</trkpt>
					<trkpt lat="44.776590" lon="6.766250">
						<ele>1813</ele>
						<time>2022-01-16T17:55:08Z</time>
					</trkpt>
					<trkpt lat="44.776740" lon="6.766150">
						<ele>1814</ele>
						<time>2022-01-16T17:55:31Z</time>
					</trkpt>
					<trkpt lat="44.776580" lon="6.765930">
						<ele>1809</ele>
						<time>2022-01-16T17:56:00Z</time>
					</trkpt>
					<trkpt lat="44.776410" lon="6.765800">
						<ele>1807</ele>
						<time>2022-01-16T17:56:26Z</time>
					</trkpt>
					<trkpt lat="44.776340" lon="6.765700">
						<ele>1808</ele>
						<time>2022-01-16T17:56:40Z</time>
					</trkpt>
					<trkpt lat="44.776180" lon="6.765610">
						<ele>1808</ele>
						<time>2022-01-16T17:57:03Z</time>
					</trkpt>
					<trkpt lat="44.776080" lon="6.765210">
						<ele>1815</ele>
						<time>2022-01-16T17:57:43Z</time>
					</trkpt>
					<trkpt lat="44.775950" lon="6.765050">
						<ele>1814</ele>
						<time>2022-01-16T17:58:06Z</time>
					</trkpt>
					<trkpt lat="44.775740" lon="6.764910">
						<ele>1817</ele>
						<time>2022-01-16T17:58:37Z</time>
					</trkpt>
					<trkpt lat="44.775500" lon="6.764900">
						<ele>1819</ele>
						<time>2022-01-16T17:59:09Z</time>
					</trkpt>
					<trkpt lat="44.775290" lon="6.765000">
						<ele>1815</ele>
						<time>2022-01-16T17:59:38Z</time>
					</trkpt>
					<trkpt lat="44.775130" lon="6.765230">
						<ele>1811</ele>
						<time>2022-01-16T18:00:09Z</time>
					</trkpt>
					<trkpt lat="44.774920" lon="6.765380">
						<ele>1808</ele>
						<time>2022-01-16T18:00:40Z</time>
					</trkpt>
					<trkpt lat="44.774700" lon="6.765490">
						<ele>1807</ele>
						<time>2022-01-16T18:01:11Z</time>
					</trkpt>
					<trkpt lat="44.774490" lon="6.765640">
						<ele>1805</ele>
						<time>2022-01-16T18:01:43Z</time>
					</trkpt>
					<trkpt lat="44.774260" lon="6.765670">
						<ele>1806</ele>
						<time>2022-01-16T18:02:14Z</time>
					</trkpt>
					<trkpt lat="44.774050" lon="6.765540">
						<ele>1808</ele>
						<time>2022-01-16T18:02:44Z</time>
					</trkpt>
					<trkpt lat="44.773870" lon="6.765330">
						<ele>1811</ele>
						<time>2022-01-16T18:03:15Z</time>
					</trkpt>
					<trkpt lat="44.773720" lon="6.765100">
						<ele>1814</ele>
						<time>2022-01-16T18:03:45Z</time>
					</trkpt>
					<trkpt lat="44.773570" lon="6.764840">
						<ele>1820</ele>
						<time>2022-01-16T18:04:17Z</time>
					</trkpt>
					<trkpt lat="44.773380" lon="6.764670">
						<ele>1824</ele>
						<time>2022-01-16T18:04:47Z</time>
					</trkpt>
					<trkpt lat="44.773150" lon="6.764700">
						<ele>1822</ele>
						<time>2022-01-16T18:05:18Z</time>
					</trkpt>
					<trkpt lat="44.772930" lon="6.764640">
						<ele>1823</ele>
						<time>2022-01-16T18:05:48Z</time>
					</trkpt>
					<trkpt lat="44.772700" lon="6.764630">
						<ele>1822</ele>
						<time>2022-01-16T18:06:18Z</time>
					</trkpt>
					<trkpt lat="44.772470" lon="6.764630">
						<ele>1821</ele>
						<time>2022-01-16T18:06:49Z</time>
					</trkpt>
					<trkpt lat="44.772230" lon="6.764640">
						<ele>1820</ele>
						<time>2022-01-16T18:07:21Z</time>
					</trkpt>
					<trkpt lat="44.772010" lon="6.764620">
						<ele>1820</ele>
						<time>2022-01-16T18:07:50Z</time>
					</trkpt>
					<trkpt lat="44.771780" lon="6.764560">
						<ele>1822</ele>
						<time>2022-01-16T18:08:22Z</time>
					</trkpt>
					<trkpt lat="44.771560" lon="6.764630">
						<ele>1820</ele>
						<time>2022-01-16T18:08:52Z</time>
					</trkpt>
					<trkpt lat="44.771330" lon="6.764660">
						<ele>1822</ele>
						<time>2022-01-16T18:09:23Z</time>
					</trkpt>
					<trkpt lat="44.771100" lon="6.764730">
						<ele>1823</ele>
						<time>2022-01-16T18:09:54Z</time>
					</trkpt>
					<trkpt lat="44.770940" lon="6.764960">
						<ele>1818</ele>
						<time>2022-01-16T18:10:24Z</time>
					</trkpt>
					<trkpt lat="44.770720" lon="6.765050">
						<ele>1820</ele>
						<time>2022-01-16T18:10:55Z</time>
					</trkpt>
					<trkpt lat="44.770500" lon="6.765090">
						<ele>1826</ele>
						<time>2022-01-16T18:11:25Z</time>
					</trkpt>
					<trkpt lat="44.770310" lon="6.765300">
						<ele>1825</ele>
						<time>2022-01-16T18:11:57Z</time>
					</trkpt>
					<trkpt lat="44.770090" lon="6.765380">
						<ele>1828</ele>
						<time>2022-01-16T18:12:27Z</time>
					</trkpt>
					<trkpt lat="44.769930" lon="6.765620">
						<ele>1824</ele>
						<time>2022-01-16T18:12:58Z</time>
					</trkpt>
					<trkpt lat="44.769760" lon="6.765830">
						<ele>1819</ele>
						<time>2022-01-16T18:13:29Z</time>
					</trkpt>
					<trkpt lat="44.769560" lon="6.766000">
						<ele>1815</ele>
						<time>2022-01-16T18:14:00Z</time>
					</trkpt>
					<trkpt lat="44.769330" lon="6.766030">
						<ele>1818</ele>
						<time>2022-01-16T18:14:31Z</time>
					</trkpt>
					<trkpt lat="44.769100" lon="6.766000">
						<ele>1823</ele>
						<time>2022-01-16T18:15:01Z</time>
					</trkpt>
					<trkpt lat="44.768870" lon="6.765990">
						<ele>1829</ele>
						<time>2022-01-16T18:15:32Z</time>
					</trkpt>
					<trkpt lat="44.768630" lon="6.765950">
						<ele>1835</ele>
						<time>2022-01-16T18:16:04Z</time>
					</trkpt>
					<trkpt lat="44.768440" lon="6.766130">
						<ele>1833</ele>
						<time>2022-01-16T18:16:35Z</time>
					</trkpt>
					<trkpt lat="44.768350" lon="6.766440">
						<ele>1827</ele>
						<time>2022-01-16T18:17:07Z</time>
					</trkpt>
					<trkpt lat="44.768320" lon="6.766760">
						<ele>1818</ele>
						<time>2022-01-16T18:17:37Z</time>
					</trkpt>
					<trkpt lat="44.768170" lon="6.767020">
						<ele>1814</ele>
						<time>2022-01-16T18:18:09Z</time>
					</trkpt>
					<trkpt lat="44.768020" lon="6.767250">
						<ele>1811</ele>
						<time>2022-01-16T18:18:39Z</time>
					</trkpt>
					<trkpt lat="44.767840" lon="6.767440">
						<ele>1809</ele>
						<time>2022-01-16T18:19:09Z</time>
					</trkpt>
					<trkpt lat="44.767630" lon="6.767600">
						<ele>1809</ele>
						<time>2022-01-16T18:19:40Z</time>
					</trkpt>
					<trkpt lat="44.767190" lon="6.767790">
						<ele>1809</ele>
						<time>2022-01-16T18:20:42Z</time>
					</trkpt>
					<trkpt lat="44.766970" lon="6.767870">
						<ele>1808</ele>
						<time>2022-01-16T18:21:12Z</time>
					</trkpt>
					<trkpt lat="44.766740" lon="6.767820">
						<ele>1813</ele>
						<time>2022-01-16T18:21:43Z</time>
					</trkpt>
					<trkpt lat="44.766290" lon="6.767620">
						<ele>1821</ele>
						<time>2022-01-16T18:22:46Z</time>
					</trkpt>
					<trkpt lat="44.766060" lon="6.767510">
						<ele>1824</ele>
						<time>2022-01-16T18:23:19Z</time>
					</trkpt>
					<trkpt lat="44.765840" lon="6.767470">
						<ele>1824</ele>
						<time>2022-01-16T18:23:48Z</time>
					</trkpt>
					<trkpt lat="44.765600" lon="6.767440">
						<ele>1826</ele>
						<time>2022-01-16T18:24:20Z</time>
					</trkpt>
					<trkpt lat="44.765380" lon="6.767390">
						<ele>1828</ele>
						<time>2022-01-16T18:24:50Z</time>
					</trkpt>
					<trkpt lat="44.765150" lon="6.767390">
						<ele>1829</ele>
						<time>2022-01-16T18:25:21Z</time>
					</trkpt>
					<trkpt lat="44.764920" lon="6.767450">
						<ele>1828</ele>
						<time>2022-01-16T18:25:52Z</time>
					</trkpt>
					<trkpt lat="44.764700" lon="6.767560">
						<ele>1828</ele>
						<time>2022-01-16T18:26:23Z</time>
					</trkpt>
					<trkpt lat="44.764480" lon="6.767670">
						<ele>1829</ele>
						<time>2022-01-16T18:26:54Z</time>
					</trkpt>
					<trkpt lat="44.764260" lon="6.767770">
						<ele>1829</ele>
						<time>2022-01-16T18:27:25Z</time>
					</trkpt>
					<trkpt lat="44.764380" lon="6.767500">
						<ele>1833</ele>
						<time>2022-01-16T18:27:55Z</time>
					</trkpt>
					<trkpt lat="44.764590" lon="6.767350">
						<ele>1835</ele>
						<time>2022-01-16T18:28:27Z</time>
					</trkpt>
					<trkpt lat="44.764760" lon="6.767140">
						<ele>1839</ele>
						<time>2022-01-16T18:28:57Z</time>
					</trkpt>
					<trkpt lat="44.764540" lon="6.767010">
						<ele>1843</ele>
						<time>2022-01-16T18:29:29Z</time>
					</trkpt>
					<trkpt lat="44.764320" lon="6.766900">
						<ele>1845</ele>
						<time>2022-01-16T18:30:00Z</time>
					</trkpt>
					<trkpt lat="44.764130" lon="6.766720">
						<ele>1848</ele>
						<time>2022-01-16T18:30:30Z</time>
					</trkpt>
					</trkseg>
				</trk>
			</gpx>